CA-0344 weather

CLOSED Smeaton Airport
Saskatchewan, Canada

Public forecast

Using degrees Celsius for public forecast. Weather courtesy of forecast.io.

Closest aviation weather report (METAR) to Smeaton Airport

Closest report is Nipawin Airport, 29.8 nm (55.1 km) ESE. Retrieved 2020/05/29 20:00 UTC (42 minutes ago):

CYBU 292000Z AUTO 21004KT 160V250 9SM SCT070 15/01 A3027 RMK SLP265

Closest aviation forecast (TAF) to Smeaton Airport

Closest forecast is Prince Albert Glass Field, 35.2 nm (65.2 km) WSW. Retrieved 2020/05/29 19:00 UTC (2 hours ago):

TAF CYPA 291838Z 2919/3004 22008KT P6SM FEW040 SCT120 BKN250 FM292200 23008KT P6SM BKN060 RMK NXT FCST BY 300100Z